createdAt,value
2023-04-18T00:00:49.433Z,7.97
2023-04-18T00:04:58.196Z,7.77
2023-04-18T00:09:07.132Z,7.70
2023-04-18T00:13:17.405Z,6.73
2023-04-18T00:17:28.121Z,7.50
2023-04-18T00:21:37.290Z,7.40
2023-04-18T00:25:45.957Z,8.03
2023-04-18T00:29:54.594Z,7.07
2023-04-18T00:34:03.262Z,7.10
2023-04-18T00:38:11.995Z,6.53
2023-04-18T00:42:22.057Z,6.03
2023-04-18T00:46:30.859Z,7.27
2023-04-18T00:50:40.677Z,7.17
2023-04-18T00:54:49.280Z,7.33
2023-04-18T00:58:58.526Z,8.57
2023-04-18T01:03:08.607Z,7.20
2023-04-18T01:07:17.542Z,6.93
2023-04-18T01:11:26.259Z,8.30
2023-04-18T01:15:34.939Z,6.63
2023-04-18T01:19:44.508Z,8.07
2023-04-18T01:23:54.390Z,5.67
2023-04-18T01:28:04.644Z,7.03
2023-04-18T01:32:13.394Z,6.97
2023-04-18T01:36:22.088Z,7.10
2023-04-18T01:40:30.747Z,6.80
2023-04-18T01:44:39.348Z,8.20
2023-04-18T01:48:47.933Z,6.80
2023-04-18T01:52:56.538Z,6.00
2023-04-18T01:57:05.569Z,6.93
2023-04-18T02:01:14.383Z,7.10
2023-04-18T02:05:23.141Z,6.93
2023-04-18T02:09:31.867Z,6.20
2023-04-18T02:13:40.594Z,6.90
2023-04-18T02:17:50.583Z,5.90
2023-04-18T02:21:59.289Z,6.83
2023-04-18T02:26:07.897Z,6.20
2023-04-18T02:30:16.807Z,5.80
2023-04-18T02:34:25.489Z,5.90
2023-04-18T02:38:34.531Z,5.47
2023-04-18T02:42:43.148Z,6.23
2023-04-18T02:46:51.778Z,5.00
2023-04-18T02:51:28.102Z,5.43
2023-04-18T02:55:37.717Z,6.17
2023-04-18T02:59:46.398Z,4.53
2023-04-18T03:03:55.022Z,5.83
2023-04-18T03:08:03.702Z,5.67
2023-04-18T03:12:12.338Z,6.23
2023-04-18T03:16:23.710Z,7.37
2023-04-18T03:20:32.458Z,5.33
2023-04-18T03:24:41.395Z,5.43
2023-04-18T03:28:50.030Z,6.10
2023-04-18T03:32:59.646Z,5.07
2023-04-18T03:37:09.688Z,7.10
2023-04-18T03:41:18.491Z,5.20
2023-04-18T03:45:27.290Z,5.77
2023-04-18T03:49:35.923Z,6.37
2023-04-18T03:53:44.517Z,4.93
2023-04-18T03:57:53.174Z,5.27
2023-04-18T04:02:01.959Z,5.10
2023-04-18T04:06:10.951Z,5.13
2023-04-18T04:10:19.696Z,5.80
2023-04-18T04:14:28.410Z,5.57
2023-04-18T04:18:37.260Z,6.67
2023-04-18T04:22:45.888Z,5.80
2023-04-18T04:26:54.610Z,8.80
2023-04-18T04:31:05.443Z,5.83
2023-04-18T04:35:14.313Z,6.13
2023-04-18T04:39:22.930Z,7.27
2023-04-18T04:43:32.223Z,6.50
2023-04-18T04:47:41.013Z,6.40
2023-04-18T04:51:49.844Z,6.63
2023-04-18T04:56:01.785Z,6.17
2023-04-18T05:00:11.509Z,5.60
2023-04-18T05:04:20.436Z,7.10
2023-04-18T05:08:29.388Z,6.63
2023-04-18T05:12:38.017Z,7.57
2023-04-18T05:16:46.693Z,6.30
2023-04-18T05:20:55.925Z,6.47
2023-04-18T05:25:04.884Z,6.63
2023-04-18T05:29:13.562Z,7.00
2023-04-18T05:33:22.187Z,7.60
2023-04-18T05:37:31.035Z,6.70
2023-04-18T05:41:39.651Z,7.00
2023-04-18T05:45:48.819Z,6.53
2023-04-18T05:49:57.637Z,7.93
2023-04-18T05:54:06.182Z,6.80
2023-04-18T05:58:14.893Z,7.77
2023-04-18T06:02:23.644Z,8.37
2023-04-18T06:06:33.001Z,8.87
2023-04-18T06:10:41.686Z,8.37
2023-04-18T06:14:51.231Z,8.27
2023-04-18T06:19:01.259Z,9.47
2023-04-18T06:23:10.312Z,9.30
2023-04-18T06:27:30.677Z,7.70
2023-04-18T06:31:29.272Z,8.13
2023-04-18T06:35:38.275Z,7.70
2023-04-18T06:39:46.856Z,8.13
2023-04-18T06:44:03.396Z,8.20
2023-04-18T06:48:07.712Z,7.93
2023-04-18T06:52:16.479Z,7.27
2023-04-18T06:56:25.409Z,7.43
2023-04-18T07:00:34.037Z,7.70
2023-04-18T07:04:42.776Z,8.43
2023-04-18T07:08:53.966Z,8.27
2023-04-18T07:13:01.933Z,8.77
2023-04-18T07:17:20.777Z,8.10
2023-04-18T07:21:20.934Z,8.43
2023-04-18T07:25:29.551Z,10.77
2023-04-18T07:29:38.181Z,9.60
2023-04-18T07:33:46.914Z,10.05
2023-04-18T07:37:56.101Z,9.27
2023-04-18T07:42:05.647Z,8.73
2023-04-18T07:46:14.533Z,8.87
2023-04-18T07:54:44.379Z,9.20
2023-04-18T07:58:53.532Z,8.95
2023-04-18T08:03:02.647Z,10.25
2023-04-18T08:07:11.470Z,9.20
2023-04-18T08:11:20.080Z,10.90
2023-04-18T08:15:29.218Z,9.87
2023-04-18T08:19:37.850Z,9.13
2023-04-18T08:23:47.447Z,9.17
2023-04-18T08:27:56.027Z,9.40
2023-04-18T08:32:08.914Z,8.83
2023-04-18T08:36:17.659Z,10.83
2023-04-18T08:40:26.524Z,10.20
2023-04-18T08:44:35.833Z,9.60
2023-04-18T08:48:44.548Z,8.30
2023-04-18T08:52:55.952Z,9.33
2023-04-18T08:57:08.873Z,11.93
2023-04-18T09:01:17.723Z,9.17
2023-04-18T09:05:27.713Z,8.40
2023-04-18T09:09:47.812Z,8.23
2023-04-18T09:13:58.805Z,10.30
2023-04-18T09:18:10.900Z,9.37
2023-04-18T09:22:19.636Z,8.63
2023-04-18T09:31:03.358Z,9.67
2023-04-18T09:35:12.049Z,9.40
2023-04-18T09:39:28.545Z,9.20
2023-04-18T09:43:37.295Z,9.60
2023-04-18T09:47:46.017Z,9.27
2023-04-18T09:51:56.705Z,9.50
2023-04-18T09:56:07.168Z,9.57
2023-04-18T10:00:27.324Z,8.73
2023-04-18T10:04:37.097Z,9.20
2023-04-18T10:08:48.718Z,8.90
2023-04-18T10:13:00.380Z,9.40
2023-04-18T10:17:09.297Z,11.93
2023-04-18T10:21:18.025Z,9.40
2023-04-18T10:25:41.517Z,9.33
2023-04-18T10:29:56.476Z,9.87
2023-04-18T10:34:08.039Z,9.37
2023-04-18T10:38:20.971Z,10.60
2023-04-18T10:42:49.703Z,9.63
2023-04-18T10:47:02.018Z,10.40
2023-04-18T10:51:19.045Z,10.43
2023-04-18T10:59:39.434Z,10.70
2023-04-18T11:03:48.248Z,10.60
2023-04-18T11:07:57.205Z,10.33
2023-04-18T11:12:10.955Z,10.93
2023-04-18T11:16:32.211Z,11.40
2023-04-18T11:20:43.397Z,12.10
2023-04-18T11:24:52.956Z,11.53
2023-04-18T11:29:05.146Z,10.80
2023-04-18T11:33:15.329Z,10.20
2023-04-18T11:37:24.049Z,11.03
2023-04-18T11:41:32.658Z,10.30
2023-04-18T11:45:44.683Z,11.67
2023-04-18T11:50:01.414Z,10.50
2023-04-18T11:54:29.210Z,10.50
2023-04-18T11:58:37.993Z,11.00
2023-04-18T12:02:51.627Z,12.37
2023-04-18T12:07:00.883Z,10.87
2023-04-18T12:11:09.513Z,10.63
2023-04-18T12:15:19.061Z,10.70
2023-04-18T12:19:28.940Z,11.73
2023-04-18T12:23:42.442Z,10.77
2023-04-18T12:27:58.024Z,11.07
2023-04-18T12:32:06.988Z,12.07
2023-04-18T12:36:16.236Z,10.00
2023-04-18T12:40:26.432Z,10.40
2023-04-18T12:44:36.147Z,13.37
2023-04-18T12:48:44.776Z,13.10
2023-04-18T12:52:56.136Z,11.97
2023-04-18T12:57:04.900Z,12.80
2023-04-18T13:01:14.294Z,14.47
2023-04-18T13:05:24.442Z,12.33
2023-04-18T13:09:33.357Z,12.10
2023-04-18T13:13:41.984Z,12.97
2023-04-18T13:17:50.987Z,12.10
2023-04-18T13:22:01.096Z,13.10
2023-04-18T13:26:09.783Z,14.53
2023-04-18T13:30:21.488Z,13.10
2023-04-18T13:34:30.112Z,13.93
2023-04-18T13:38:38.771Z,12.80
2023-04-18T13:42:47.552Z,13.03
2023-04-18T13:46:56.743Z,13.43
2023-04-18T13:51:05.989Z,14.27
2023-04-18T13:55:14.618Z,10.60
2023-04-18T13:59:23.242Z,12.17
2023-04-18T14:03:32.692Z,11.93
2023-04-18T14:07:42.142Z,11.73
2023-04-18T14:11:51.344Z,12.20
2023-04-18T14:16:00.406Z,13.13
2023-04-18T14:20:09.841Z,12.87
2023-04-18T14:24:18.706Z,11.93
2023-04-18T14:28:27.894Z,11.47
2023-04-18T14:32:36.706Z,12.93
2023-04-18T14:36:45.429Z,12.67
2023-04-18T14:40:54.141Z,12.83
2023-04-18T14:45:04.405Z,11.63
2023-04-18T14:49:13.293Z,10.67
2023-04-18T14:53:22.163Z,11.37
2023-04-18T14:57:30.955Z,14.30
2023-04-18T15:01:41.328Z,12.80
2023-04-18T15:05:50.003Z,12.60
2023-04-18T15:09:58.634Z,11.90
2023-04-18T15:14:07.298Z,12.50
2023-04-18T15:18:16.021Z,12.63
2023-04-18T15:22:24.827Z,12.20
2023-04-18T15:26:33.770Z,12.47
2023-04-18T15:30:42.421Z,14.45
2023-04-18T15:34:51.434Z,10.43
2023-04-18T15:39:00.188Z,10.77
2023-04-18T15:43:08.791Z,11.30
2023-04-18T15:47:17.445Z,9.90
2023-04-18T15:51:30.257Z,10.50
2023-04-18T15:55:39.081Z,9.70
2023-04-18T15:59:47.814Z,8.50
2023-04-18T16:03:56.609Z,10.33
2023-04-18T16:08:05.591Z,10.20
2023-04-18T16:12:14.312Z,10.33
2023-04-18T16:16:22.986Z,11.30
2023-04-18T16:20:33.407Z,10.37
2023-04-18T16:24:42.311Z,10.83
2023-04-18T16:28:51.176Z,12.37
2023-04-18T16:33:00.072Z,11.30
2023-04-18T16:37:10.666Z,11.67
2023-04-18T16:41:19.324Z,11.60
2023-04-18T16:45:34.088Z,11.07
2023-04-18T16:49:45.877Z,11.23
2023-04-18T16:53:55.797Z,11.15
2023-04-18T16:58:05.787Z,11.30
2023-04-18T17:02:19.636Z,10.43
2023-04-18T17:06:32.784Z,10.80
2023-04-18T17:10:41.458Z,11.07
2023-04-18T17:14:50.264Z,10.70
2023-04-18T17:18:58.897Z,10.07
2023-04-18T17:23:11.208Z,11.03
2023-04-18T17:27:22.841Z,10.10
2023-04-18T17:31:33.520Z,10.70
2023-04-18T17:35:44.680Z,11.07
2023-04-18T17:39:54.609Z,10.30
2023-04-18T17:44:03.266Z,11.08
2023-04-18T17:48:11.885Z,10.60
2023-04-18T17:52:21.742Z,10.60
2023-04-18T17:56:31.500Z,9.37
2023-04-18T18:00:40.149Z,10.13
2023-04-18T18:04:51.564Z,10.90
2023-04-18T18:09:00.138Z,8.80
2023-04-18T18:13:09.123Z,10.60
2023-04-18T18:17:17.836Z,11.13
2023-04-18T18:21:27.105Z,9.10
2023-04-18T18:25:37.623Z,11.70
2023-04-18T18:29:47.674Z,8.30
2023-04-18T18:33:56.302Z,10.67
2023-04-18T18:38:04.909Z,9.93
2023-04-18T18:42:19.628Z,9.93
2023-04-18T18:46:28.415Z,10.73
2023-04-18T18:50:37.085Z,9.50
2023-04-18T18:54:45.817Z,10.37
2023-04-18T18:58:58.344Z,9.97
2023-04-18T19:03:08.436Z,10.17
2023-04-18T19:07:17.343Z,9.40
2023-04-18T19:11:26.799Z,9.50
2023-04-18T19:15:35.633Z,9.77
2023-04-18T19:19:44.781Z,9.93
2023-04-18T19:23:53.491Z,10.53
2023-04-18T19:28:02.223Z,9.40
2023-04-18T19:32:10.869Z,11.23
2023-04-18T19:36:19.593Z,10.20
2023-04-18T19:40:28.830Z,10.17
2023-04-18T19:44:37.553Z,9.10
2023-04-18T19:48:46.120Z,9.80
2023-04-18T19:52:54.815Z,9.33
2023-04-18T19:57:04.785Z,9.83
2023-04-18T20:01:15.743Z,10.40
2023-04-18T20:05:24.825Z,8.77
2023-04-18T20:09:35.152Z,9.80
2023-04-18T20:13:43.738Z,9.83
2023-04-18T20:17:52.514Z,9.63
2023-04-18T20:22:01.904Z,8.70
2023-04-18T20:26:10.600Z,8.37
2023-04-18T20:30:19.589Z,9.40
2023-04-18T20:34:28.239Z,8.33
2023-04-18T20:38:57.064Z,10.00
2023-04-18T20:43:08.140Z,9.57
2023-04-18T20:47:18.003Z,10.00
2023-04-18T20:51:27.930Z,8.50
2023-04-18T20:55:36.806Z,9.57
2023-04-18T20:59:45.753Z,9.80
2023-04-18T21:03:54.575Z,10.80
2023-04-18T21:08:03.306Z,9.33
2023-04-18T21:12:11.938Z,9.70
2023-04-18T21:16:22.444Z,10.13
2023-04-18T21:20:31.105Z,10.90
2023-04-18T21:24:40.466Z,10.63
2023-04-18T21:29:04.921Z,9.00
2023-04-18T21:33:14.232Z,10.10
2023-04-18T21:37:22.956Z,10.40
2023-04-18T21:41:31.584Z,10.20
2023-04-18T21:45:40.272Z,10.27
2023-04-18T21:49:49.908Z,11.00
2023-04-18T21:53:59.094Z,9.87
2023-04-18T21:58:07.705Z,9.70
2023-04-18T22:02:16.491Z,10.10
2023-04-18T22:06:26.300Z,9.87
2023-04-18T22:10:38.212Z,9.97
2023-04-18T22:14:48.554Z,10.30
2023-04-18T22:18:57.772Z,8.87
2023-04-18T22:23:07.191Z,10.10
2023-04-18T22:27:15.921Z,10.03
2023-04-18T22:31:24.593Z,9.90
2023-04-18T22:35:33.384Z,9.03
2023-04-18T22:39:42.113Z,9.40
2023-04-18T22:43:50.746Z,11.30
2023-04-18T22:47:59.523Z,11.37
2023-04-18T22:56:45.616Z,11.33
2023-04-18T23:00:54.252Z,10.70
2023-04-18T23:05:03.082Z,10.20
2023-04-18T23:09:11.711Z,10.20
2023-04-18T23:13:20.434Z,8.87
2023-04-18T23:17:29.308Z,9.97
2023-04-18T23:21:38.019Z,8.97
2023-04-18T23:25:46.738Z,10.50
2023-04-18T23:29:55.573Z,11.30
2023-04-18T23:34:04.306Z,10.07
2023-04-18T23:38:12.949Z,9.73
2023-04-18T23:42:21.551Z,9.50
2023-04-18T23:46:31.077Z,11.17
2023-04-18T23:50:45.805Z,10.03
2023-04-18T23:54:54.618Z,11.70
2023-04-18T23:59:03.255Z,11.10
